Data for 01/17/2010

Time Sea-Level Adjusted Pressure Absolute Pressure Temperature Relative Humidity Dew Point   
(mb) (inHg) (mb) (inHg) (C) (F) (%) (C) (F)
00:05 1014 29.94 843 24.89 2.5 36.4 59 -4.7 23.5
00:10 1014 29.94 843 24.89 2.5 36.6 59 -4.7 23.5
00:15 1014 29.94 843 24.89 2.4 36.4 62 -4.2 24.4
00:20 1014 29.94 843 24.89 2.3 36.1 60 -4.8 23.3
00:25 1014 29.94 843 24.89 2.4 36.4 57 -5.2 22.6
00:30 1014 29.94 843 24.89 2.7 36.8 54 -5.7 21.8
00:35 1014 29.94 843 24.89 2.9 37.2 53 -5.7 21.7
00:40 1014 29.94 843 24.89 3 37.5 53 -5.6 21.9
00:45 1014 29.94 843 24.89 3 37.4 54 -5.3 22.4
00:50 1014 29.94 843 24.89 2.9 37.2 55 -5.1 22.7
00:55 1014 29.94 843 24.89 2.8 37 57 -4.9 23.1
01:00 1014 29.94 843 24.89 2.6 36.7 58 -4.9 23.2
01:05 1014 29.94 843 24.89 2.6 36.7 58 -4.8 23.3
01:10 1014 29.94 843 24.89 2.4 36.4 60 -4.6 23.7
01:15 1014 29.94 843 24.89 2.1 35.8 61 -4.6 23.7
01:20 1014 29.94 843 24.89 1.9 35.4 59 -5.4 22.4
01:25 1014 29.94 843 24.89 2.1 35.8 57 -5.4 22.3
01:30 1014 29.94 843 24.89 2.3 36.1 57 -5.3 22.4
01:35 1014 29.94 843 24.89 2.1 35.9 58 -5.3 22.4
01:40 1014 29.94 843 24.89 2.2 35.9 57 -5.5 22.1
01:45 1014 29.94 843 24.89 2.2 35.9 57 -5.4 22.3
01:50 1014 29.94 843 24.89 2.1 35.8 59 -5.2 22.7
01:55 1014 29.94 843 24.89 2 35.6 58 -5.5 22.2
02:00 1014 29.94 843 24.89 2.1 35.7 57 -5.5 22.1
02:05 1014 29.94 843 24.89 2.1 35.9 56 -5.6 21.8
02:10 1014 29.94 843 24.89 2.3 36.1 56 -5.5 22
02:15 1014 29.94 843 24.89 2.3 36.1 56 -5.6 22
02:20 1014 29.94 843 24.89 2.3 36.2 56 -5.5 22.1
02:25 1014 29.94 843 24.89 2.3 36.1 57 -5.4 22.3
02:30 1014 29.94 843 24.89 2.2 35.9 58 -5.3 22.5
02:35 1014 29.94 843 24.89 2 35.7 57 -5.6 22
02:40 1014 29.94 843 24.89 2.2 35.9 57 -5.4 22.3
02:45 1014 29.94 843 24.89 2 35.7 58 -5.3 22.5
02:50 1013 29.91 843 24.89 1.9 35.3 59 -5.3 22.5
02:55 1013 29.91 843 24.89 1.7 35.1 58 -5.6 22
03:00 1013 29.91 843 24.89 1.8 35.2 59 -5.4 22.3
03:05 1013 29.91 842 24.86 1.7 35 60 -5.3 22.4
03:10 1013 29.91 842 24.86 1.5 34.7 59 -5.6 21.9
03:15 1013 29.91 842 24.86 1.6 34.9 59 -5.5 22.2
03:20 1013 29.91 842 24.86 1.4 34.5 61 -5.3 22.5
03:25 1013 29.91 842 24.86 1.1 33.9 62 -5.4 22.2
03:30 1013 29.91 842 24.86 0.8 33.5 63 -5.5 22.1
03:35 1013 29.91 842 24.86 0.9 33.7 61 -5.7 21.8
03:40 1013 29.91 842 24.86 1.1 33.9 61 -5.7 21.7
03:45 1013 29.91 842 24.86 1 33.8 62 -5.5 22.1
03:50 1013 29.91 842 24.86 0.7 33.2 62 -5.7 21.7
03:55 1013 29.91 842 24.86 0.5 32.8 62 -6.1 21.1
04:00 1013 29.91 842 24.86 0.4 32.7 62 -6.1 21
04:05 1013 29.91 842 24.86 0.2 32.4 62 -6.1 21
04:10 1013 29.91 842 24.86 0.3 32.6 62 -6.2 20.9
04:15 1013 29.91 842 24.86 0.3 32.5 63 -6 21.2
04:20 1013 29.91 842 24.86 -0.1 31.8 64 -6.1 21
04:25 1013 29.91 842 24.86 -0.3 31.5 64 -6.3 20.7
04:30 1013 29.91 842 24.86 -0.3 31.5 64 -6.4 20.5
04:35 1013 29.91 842 24.86 -0.1 31.8 63 -6.4 20.5
04:40 1013 29.91 842 24.86 0.1 32.2 61 -6.6 20.2
04:45 1013 29.91 842 24.86 0.5 32.9 58 -6.7 19.9
04:50 1013 29.91 842 24.86 1 33.9 57 -6.5 20.2
04:55 1013 29.91 842 24.86 1 33.8 58 -6.3 20.6
05:00 1013 29.91 842 24.86 0.8 33.5 59 -6.2 20.8
05:05 1013 29.91 842 24.86 0.5 32.9 61 -6.2 20.9
05:10 1013 29.91 842 24.86 0.2 32.4 62 -6.2 20.9
05:15 1013 29.91 842 24.86 -0 31.9 63 -6.2 20.8
05:20 1013 29.91 842 24.86 -0 31.9 62 -6.4 20.5
05:25 1013 29.91 842 24.86 0.1 32.1 63 -6.2 20.9
05:30 1013 29.91 842 24.86 -0.1 31.9 65 -5.9 21.3
05:35 1013 29.91 842 24.86 0.2 32.4 61 -6.4 20.5
05:40 1013 29.91 842 24.86 0.6 33.1 61 -6.2 20.9
05:45 1013 29.91 842 24.86 0.6 33 61 -6 21.2
05:50 1013 29.91 842 24.86 0.3 32.5 62 -6.2 20.9
05:55 1013 29.91 842 24.86 0.6 33 60 -6.4 20.5
06:00 1013 29.91 842 24.86 0.7 33.3 60 -6.2 20.8
06:05 1013 29.91 842 24.86 0.7 33.2 60 -6.3 20.7
06:10 1013 29.91 842 24.86 0.8 33.4 59 -6.3 20.6
06:15 1013 29.91 842 24.86 0.8 33.4 59 -6.3 20.6
06:20 1013 29.91 842 24.86 0.7 33.3 60 -6.1 21
06:25 1013 29.91 842 24.86 0.5 32.9 61 -6.2 20.9
06:30 1013 29.91 842 24.86 0.4 32.8 61 -6.1 20.9
06:35 1013 29.91 842 24.86 0.2 32.4 63 -6.1 21
06:40 1013 29.91 842 24.86 -0 32 64 -6 21.2
06:45 1012 29.88 842 24.86 -0.3 31.5 64 -6.2 20.9
06:50 1012 29.88 842 24.86 -0.3 31.4 64 -6.3 20.7
06:55 1012 29.88 842 24.86 -0.4 31.3 64 -6.4 20.5
07:00 1012 29.88 842 24.86 -0.4 31.4 64 -6.4 20.6
07:05 1012 29.88 842 24.86 -0.3 31.5 63 -6.5 20.3
07:10 1012 29.88 842 24.86 -0.2 31.6 63 -6.4 20.4
07:15 1012 29.88 842 24.86 -0.4 31.3 65 -6.2 20.8
07:20 1012 29.88 842 24.86 -0.5 31.1 62 -6.9 19.6
07:25 1012 29.88 842 24.86 -0 31.9 61 -6.7 20
07:30 1012 29.88 841 24.83 -0.1 31.8 62 -6.6 20.2
07:35 1012 29.88 841 24.83 -0.3 31.4 63 -6.6 20.1
07:40 1012 29.88 841 24.83 -0.7 30.8 63 -6.8 19.8
07:45 1012 29.88 841 24.83 -0.7 30.8 64 -6.7 19.9
07:50 1012 29.88 841 24.83 -0.9 30.4 65 -6.7 19.9
07:55 1012 29.88 841 24.83 -1 30.3 65 -6.8 19.8
08:00 1012 29.88 841 24.83 -1 30.2 64 -7 19.5
08:05 1012 29.88 841 24.83 -1 30.2 64 -7 19.4
08:10 1012 29.88 841 24.83 -0.9 30.3 63 -7 19.4
08:15 1012 29.88 841 24.83 -1 30.2 64 -7 19.3
08:20 1012 29.88 841 24.83 -0.8 30.5 63 -7.1 19.3
08:25 1012 29.88 841 24.83 -0.7 30.7 62 -7.1 19.2
08:30 1012 29.88 841 24.83 -0.4 31.2 61 -7 19.4
08:35 1012 29.88 841 24.83 -0.3 31.4 61 -6.9 19.5
08:40 1012 29.88 841 24.83 -0.3 31.4 61 -6.9 19.6
08:45 1012 29.88 841 24.83 -0.1 31.8 61 -6.8 19.7
08:50 1012 29.88 841 24.83 0.1 32.1 60 -6.8 19.7
08:55 1012 29.88 841 24.83 0.3 32.5 60 -6.6 20.1
09:00 1012 29.88 841 24.83 0.4 32.6 59 -6.8 19.7
09:05 1012 29.88 841 24.83 0.7 33.3 58 -6.7 19.9
09:10 1012 29.88 841 24.83 0.6 33 59 -6.5 20.3
09:15 1012 29.88 841 24.83 0.3 32.5 60 -6.6 20.1
09:20 1012 29.88 841 24.83 0.3 32.6 59 -6.7 19.9
09:25 1012 29.88 841 24.83 0.5 32.9 60 -6.5 20.3
09:30 1012 29.88 841 24.83 0.3 32.6 61 -6.4 20.4
09:35 1012 29.88 841 24.83 0.7 33.2 58 -6.6 20
09:40 1012 29.88 841 24.83 0.5 32.9 59 -6.5 20.2
09:45 1012 29.88 841 24.83 0.4 32.6 59 -6.7 19.9
09:50 1012 29.88 841 24.83 0.5 32.8 59 -6.6 20.1
09:55 1012 29.88 841 24.83 0.5 32.9 59 -6.6 20.1
10:00 1012 29.88 841 24.83 0.4 32.8 59 -6.7 20
10:05 1012 29.88 841 24.83 0.5 32.9 59 -6.6 20.1
10:10 1012 29.88 841 24.83 0.6 33.1 58 -6.6 20.1
10:15 1012 29.88 841 24.83 0.8 33.4 58 -6.7 20
10:20 1012 29.88 841 24.83 0.9 33.7 57 -6.6 20.1
10:25 1012 29.88 841 24.83 1 33.9 57 -6.6 20.1
10:30 1012 29.88 841 24.83 1.5 34.7 55 -6.7 20
10:35 1012 29.88 841 24.83 1.9 35.4 54 -6.4 20.5
10:40 1012 29.88 841 24.83 2.1 35.8 53 -6.6 20.1
10:45 1012 29.88 841 24.83 2.5 36.4 52 -6.4 20.4
10:50 1012 29.88 841 24.83 3 37.3 49 -6.8 19.8
10:55 1012 29.88 841 24.83 3.3 38 49 -6.4 20.5
11:00 1012 29.88 841 24.83 3.5 38.3 48 -6.4 20.5
11:05 1012 29.88 841 24.83 3.6 38.4 49 -6.2 20.9
11:10 1012 29.88 841 24.83 3.7 38.6 48 -6.2 20.8
11:15 1011 29.85 841 24.83 4.1 39.3 45 -6.7 20
11:20 1011 29.85 841 24.83 5.1 41.2 42 -6.8 19.8
11:25 1011 29.85 841 24.83 5.6 42.1 41 -6.4 20.4
11:30 1011 29.85 840 24.81 5.9 42.7 40 -6.7 19.9
11:35 1011 29.85 840 24.81 6.1 43 40 -6.5 20.2
11:40 1011 29.85 840 24.81 5.8 42.5 40 -6.8 19.7
11:45 1011 29.85 840 24.81 6.3 43.4 39 -6.7 20
11:50 1011 29.85 840 24.81 6.8 44.3 40 -5.9 21.3
11:55 1011 29.85 840 24.81 6.7 44 40 -6.1 21
12:00 1011 29.85 840 24.81 7.1 44.8 41 -5.1 22.7
12:05 1011 29.85 840 24.81 6.3 43.4 43 -5.5 22.2
12:10 1011 29.85 840 24.81 6.5 43.7 42 -5.5 22
12:15 1011 29.85 840 24.81 6 42.8 43 -5.6 22
12:20 1011 29.85 840 24.81 6.3 43.3 41 -6 21.3
12:25 1011 29.85 840 24.81 6.6 43.9 42 -5.5 22.1
12:30 1011 29.85 840 24.81 6.9 44.4 41 -5.4 22.2
12:35 1011 29.85 840 24.81 7 44.5 41 -5.3 22.4
12:40 1011 29.85 840 24.81 6.5 43.8 42 -5.3 22.4
12:45 1010 29.83 840 24.81 6 42.7 44 -5.2 22.6
12:50 1010 29.83 840 24.81 5.9 42.7 44 -5.3 22.5
12:55 1010 29.83 839 24.78 5.8 42.5 45 -5.2 22.6
13:00 1010 29.83 839 24.78 5.9 42.7 46 -4.7 23.5
13:05 1010 29.83 839 24.78 5.5 41.8 45 -5.5 22.2
13:10 1010 29.83 839 24.78 6 42.9 44 -5.4 22.3
13:15 1010 29.83 839 24.78 5.2 41.4 46 -5.5 22.1
13:20 1010 29.83 839 24.78 5.9 42.6 42 -5.9 21.3
13:25 1010 29.83 839 24.78 6 42.8 44 -5.4 22.2
13:30 1010 29.83 839 24.78 6.1 42.9 43 -5.6 21.8
13:35 1010 29.83 839 24.78 6.3 43.4 43 -5.5 22.1
13:40 1010 29.83 839 24.78 6.5 43.8 43 -5.3 22.5
13:45 1010 29.83 839 24.78 6.8 44.3 42 -5.1 22.9
13:50 1009 29.8 839 24.78 7.4 45.2 41 -5 23
13:55 1009 29.8 839 24.78 7.8 46 39 -5.3 22.4
14:00 1009 29.8 838 24.75 8.1 46.6 39 -4.9 23.2
14:05 1009 29.8 838 24.75 7.8 46.1 41 -4.5 23.9
14:10 1009 29.8 838 24.75 7.3 45.1 41 -5 23
14:15 1009 29.8 838 24.75 7.2 44.9 44 -4.1 24.6
14:20 1009 29.8 838 24.75 7 44.6 43 -4.6 23.7
14:25 1009 29.8 838 24.75 7.2 44.9 42 -4.9 23.2
14:30 1009 29.8 838 24.75 7.6 45.7 42 -4.6 23.7
14:35 1009 29.8 838 24.75 7.4 45.3 41 -5.1 22.8
14:40 1009 29.8 838 24.75 7.4 45.3 40 -5.5 22.2
14:45 1009 29.8 838 24.75 7.2 44.9 42 -4.9 23.1
14:50 1009 29.8 838 24.75 7.7 45.9 41 -4.7 23.6
14:55 1009 29.8 838 24.75 8.3 46.9 39 -4.9 23.2
15:00 1009 29.8 838 24.75 8.3 46.9 39 -4.8 23.4
15:05 1009 29.8 838 24.75 7.8 46.1 40 -4.9 23.2
15:10 1009 29.8 838 24.75 7.6 45.6 41 -4.9 23.1
15:15 1009 29.8 838 24.75 7.9 46.1 39 -5.4 22.3
15:20 1009 29.8 838 24.75 7.9 46.2 40 -5 23
15:25 1009 29.8 838 24.75 8 46.3 38 -5.5 22.1
15:30 1009 29.8 838 24.75 7.6 45.7 41 -4.8 23.4
15:35 1009 29.8 838 24.75 7 44.6 39 -6 21.1
15:40 1009 29.8 838 24.75 6.3 43.3 42 -5.8 21.6
15:45 1009 29.8 838 24.75 5.6 42.1 46 -5.1 22.7
15:50 1009 29.8 838 24.75 5.4 41.8 47 -4.9 23.1
15:55 1009 29.8 838 24.75 5.4 41.7 47 -5 23.1
16:00 1009 29.8 838 24.75 5.4 41.8 47 -4.9 23.1
16:05 1009 29.8 838 24.75 5.2 41.4 48 -4.9 23.1
16:10 1009 29.8 838 24.75 5.2 41.4 48 -4.8 23.3
16:15 1009 29.8 838 24.75 5.1 41.3 48 -5 23
16:20 1009 29.8 838 24.75 5.1 41.1 47 -5.2 22.7
16:25 1009 29.8 838 24.75 5.1 41.2 48 -5 22.9
16:30 1009 29.8 838 24.75 5 40.9 49 -4.8 23.3
16:35 1009 29.8 838 24.75 4.8 40.6 49 -4.9 23.1
16:40 1009 29.8 838 24.75 4.4 39.9 50 -5.2 22.7
16:45 1009 29.8 838 24.75 4 39.3 50 -5.5 22
16:50 1009 29.8 838 24.75 4 39.1 50 -5.4 22.3
16:55 1009 29.8 838 24.75 3.9 39 50 -5.5 22.1
17:00 1009 29.8 838 24.75 3.8 38.8 50 -5.6 21.9
17:05 1009 29.8 838 24.75 3.7 38.7 52 -5.1 22.8
17:10 1009 29.8 838 24.75 3.4 38.1 52 -5.5 22.1
17:15 1009 29.8 838 24.75 3.4 38.1 53 -5.4 22.3
17:20 1009 29.8 838 24.75 3.4 38.1 51 -5.9 21.3
17:25 1009 29.8 838 24.75 3.1 37.6 50 -6.3 20.7
17:30 1009 29.8 838 24.75 3 37.4 52 -5.9 21.3
17:35 1009 29.8 838 24.75 2.4 36.4 51 -6.7 20
17:40 1009 29.8 838 24.75 2.5 36.5 54 -5.8 21.5
17:45 1009 29.8 838 24.75 2 35.6 52 -6.9 19.6
17:50 1009 29.8 838 24.75 2.5 36.4 51 -6.6 20.1
17:55 1009 29.8 838 24.75 2.3 36.2 52 -6.5 20.2
18:00 1009 29.8 838 24.75 2.4 36.2 52 -6.5 20.3
18:05 1009 29.8 838 24.75 2.3 36.1 48 -7.7 18.2
18:10 1009 29.8 838 24.75 2.6 36.7 49 -7 19.3
18:15 1009 29.8 838 24.75 2 35.6 50 -7.4 18.7
18:20 1009 29.8 838 24.75 1.7 35.1 50 -7.6 18.3
18:25 1009 29.8 838 24.75 1.7 35.1 48 -8.1 17.4
18:30 1009 29.8 838 24.75 2.2 36 47 -7.9 17.7
18:35 1009 29.8 838 24.75 2.1 35.8 47 -8.1 17.5
18:40 1009 29.8 838 24.75 2.3 36.1 47 -8 17.5
18:45 1009 29.8 838 24.75 2.5 36.5 45 -8.4 16.9
18:50 1008 29.77 838 24.75 2.7 36.8 44 -8.3 17.1
18:55 1008 29.77 838 24.75 2.5 36.6 44 -8.4 16.9
19:00 1008 29.77 838 24.75 2.3 36.2 45 -8.3 17
19:05 1008 29.77 838 24.75 2.2 36 45 -8.5 16.8
19:10 1008 29.77 838 24.75 2.4 36.3 44 -8.7 16.3
19:15 1008 29.77 838 24.75 2.5 36.5 44 -8.7 16.4
19:20 1008 29.77 838 24.75 2.6 36.6 42 -9.1 15.7
19:25 1008 29.77 838 24.75 2.6 36.7 43 -8.9 16
19:30 1008 29.77 838 24.75 2.4 36.2 43 -8.9 16
19:35 1008 29.77 838 24.75 2.3 36.1 42 -9.2 15.5
19:40 1008 29.77 838 24.75 2.1 35.8 44 -9 15.8
19:45 1008 29.77 838 24.75 2.2 36 42 -9.3 15.2
19:50 1008 29.77 838 24.75 2.5 36.5 41 -9.5 14.9
19:55 1008 29.77 838 24.75 2.6 36.7 41 -9.3 15.3
20:00 1008 29.77 838 24.75 2.5 36.5 42 -9.1 15.6
20:05 1008 29.77 838 24.75 2.5 36.6 42 -9.1 15.5
20:10 1008 29.77 838 24.75 2.5 36.4 42 -9.2 15.4
20:15 1008 29.77 838 24.75 2.4 36.4 41 -9.4 15
20:20 1008 29.77 838 24.75 2.7 36.8 41 -9.2 15.4
20:25 1008 29.77 838 24.75 2.3 36.1 43 -9 15.7
20:30 1008 29.77 838 24.75 2 35.7 44 -9.1 15.6
20:35 1008 29.77 838 24.75 1.9 35.5 44 -9.1 15.7
20:40 1008 29.77 838 24.75 2 35.7 42 -9.5 14.9
20:45 1008 29.77 838 24.75 2.2 36 41 -9.7 14.5
20:50 1008 29.77 838 24.75 2.2 35.9 42 -9.5 14.8
20:55 1008 29.77 838 24.75 2.2 36 40 -10 14.1
21:00 1008 29.77 838 24.75 2.2 36 40 -10 14
21:05 1008 29.77 838 24.75 2.3 36.2 40 -10.1 13.9
21:10 1008 29.77 838 24.75 2.1 35.8 40 -10.2 13.7
21:15 1008 29.77 838 24.75 1.6 34.9 41 -10.3 13.5
21:20 1008 29.77 838 24.75 1.6 35 41 -10.2 13.6
21:25 1008 29.77 837 24.72 1.4 34.6 41 -10.4 13.4
21:30 1008 29.77 837 24.72 1.7 35 40 -10.4 13.2
21:35 1008 29.77 837 24.72 1.6 34.8 41 -10.4 13.2
21:40 1008 29.77 838 24.75 1.5 34.7 41 -10.4 13.2
21:45 1008 29.77 838 24.75 1.7 35.1 40 -10.6 13
21:50 1008 29.77 838 24.75 1.8 35.2 39 -10.6 12.9
21:55 1008 29.77 838 24.75 1.7 35 40 -10.4 13.2
22:00 1008 29.77 838 24.75 1.4 34.4 40 -10.8 12.5
22:05 1008 29.77 838 24.75 1.5 34.6 40 -10.7 12.8
22:10 1008 29.77 838 24.75 1.5 34.7 40 -10.8 12.5
22:15 1008 29.77 838 24.75 1.5 34.7 40 -10.8 12.6
22:20 1008 29.77 838 24.75 1.5 34.7 38 -11.3 11.7
22:25 1008 29.77 838 24.75 1.8 35.2 39 -10.9 12.4
22:30 1008 29.77 838 24.75 1.6 34.8 39 -10.9 12.4
22:35 1008 29.77 838 24.75 1.4 34.5 41 -10.6 12.9
22:40 1009 29.8 838 24.75 1.4 34.5 40 -10.8 12.5
22:45 1009 29.8 838 24.75 1.5 34.7 40 -10.6 12.8
22:50 1008 29.77 838 24.75 1.6 34.8 40 -10.6 12.9
22:55 1008 29.77 838 24.75 1.3 34.3 41 -10.7 12.8
23:00 1008 29.77 838 24.75 1.3 34.4 39 -11 12.2
23:05 1008 29.77 838 24.75 1.4 34.6 41 -10.3 13.4
23:10 1009 29.8 838 24.75 1.2 34.1 42 -10.3 13.5
23:15 1009 29.8 838 24.75 1.4 34.5 40 -10.7 12.7
23:20 1009 29.8 838 24.75 1.8 35.3 40 -10.3 13.5
23:25 1008 29.77 838 24.75 1.8 35.3 39 -10.7 12.8
23:30 1009 29.8 838 24.75 2 35.6 39 -10.5 13.1
23:35 1009 29.8 838 24.75 1.8 35.3 40 -10.5 13
23:40 1009 29.8 838 24.75 1.7 35.1 40 -10.4 13.2
23:45 1009 29.8 838 24.75 1.6 35 40 -10.6 13
23:50 1009 29.8 838 24.75 1.7 35 41 -10.4 13.3
23:55 1009 29.8 838 24.75 1.9 35.4 40 -10.4 13.2
24:00 1009 29.8 838 24.75 2.1 35.8 38 -10.6 12.9